createdAt,value
2017-08-26T00:01:01.620Z,17.90
2017-08-26T00:03:29.864Z,17.50
2017-08-26T00:05:57.326Z,17.73
2017-08-26T00:08:24.816Z,18.73
2017-08-26T00:10:52.285Z,20.10
2017-08-26T00:13:19.815Z,19.80
2017-08-26T00:15:47.295Z,18.53
2017-08-26T00:18:14.779Z,16.57
2017-08-26T00:20:42.280Z,17.77
2017-08-26T00:23:09.755Z,19.50
2017-08-26T00:25:37.223Z,17.27
2017-08-26T00:28:05.460Z,17.63
2017-08-26T00:30:32.940Z,17.40
2017-08-26T00:33:00.409Z,17.90
2017-08-26T00:35:27.866Z,15.77
2017-08-26T00:37:55.395Z,16.77
2017-08-26T00:40:22.972Z,17.80
2017-08-26T00:42:50.471Z,16.23
2017-08-26T00:45:17.948Z,17.80
2017-08-26T00:47:45.445Z,17.70
2017-08-26T00:50:12.907Z,16.20
2017-08-26T00:52:40.443Z,19.10
2017-08-26T00:55:08.054Z,17.57
2017-08-26T00:57:35.573Z,16.47
2017-08-26T01:00:03.120Z,14.40
2017-08-26T01:02:30.685Z,19.50
2017-08-26T01:04:58.243Z,18.80
2017-08-26T01:07:31.511Z,17.23
2017-08-26T01:09:58.975Z,16.50
2017-08-26T01:12:26.447Z,16.00
2017-08-26T01:14:53.932Z,18.77
2017-08-26T01:17:22.160Z,17.67
2017-08-26T01:19:49.620Z,21.80
2017-08-26T01:22:17.915Z,17.67
2017-08-26T01:24:45.391Z,20.00
2017-08-26T01:27:12.860Z,16.30
2017-08-26T01:29:40.411Z,15.27
2017-08-26T01:32:07.872Z,20.07
2017-08-26T01:34:35.347Z,15.40
2017-08-26T01:37:02.834Z,15.70
2017-08-26T01:39:30.310Z,13.60
2017-08-26T01:41:58.243Z,16.43
2017-08-26T01:44:25.717Z,13.40
2017-08-26T01:46:53.191Z,15.80
2017-08-26T01:49:20.660Z,15.03
2017-08-26T01:51:48.147Z,16.97
2017-08-26T01:54:15.679Z,14.67
2017-08-26T01:56:43.244Z,13.10
2017-08-26T01:59:10.728Z,14.00
2017-08-26T02:01:38.233Z,13.60
2017-08-26T02:04:05.698Z,13.90
2017-08-26T02:06:33.249Z,14.93
2017-08-26T02:09:00.819Z,13.80
2017-08-26T02:11:28.276Z,14.70
2017-08-26T02:13:55.876Z,13.83
2017-08-26T02:16:23.330Z,15.13
2017-08-26T02:18:51.598Z,15.43
2017-08-26T02:21:19.079Z,16.87
2017-08-26T02:23:46.571Z,12.63
2017-08-26T02:26:14.033Z,16.47
2017-08-26T02:28:41.513Z,16.03
2017-08-26T02:31:08.967Z,14.60
2017-08-26T02:33:37.219Z,16.00
2017-08-26T02:36:04.691Z,15.43
2017-08-26T02:38:32.233Z,16.27
2017-08-26T02:40:59.699Z,16.70
2017-08-26T02:43:27.176Z,17.40
2017-08-26T02:45:54.704Z,18.33
2017-08-26T02:48:22.163Z,17.30
2017-08-26T02:50:49.723Z,16.03
2017-08-26T02:53:17.285Z,17.30
2017-08-26T02:55:44.742Z,15.30
2017-08-26T02:58:13.019Z,18.80
2017-08-26T03:00:41.252Z,16.20
2017-08-26T03:03:08.758Z,15.80
2017-08-26T03:05:36.263Z,16.60
2017-08-26T03:08:03.771Z,18.00
2017-08-26T03:10:32.030Z,16.50
2017-08-26T03:12:59.507Z,17.20
2017-08-26T03:15:27.043Z,17.07
2017-08-26T03:17:54.519Z,15.27
2017-08-26T03:20:21.987Z,15.20
2017-08-26T03:22:49.451Z,16.50
2017-08-26T03:25:16.915Z,15.60
2017-08-26T03:27:44.417Z,17.50
2017-08-26T03:30:12.507Z,16.40
2017-08-26T03:32:39.979Z,16.87
2017-08-26T03:35:07.468Z,16.90
2017-08-26T03:37:35.026Z,17.33
2017-08-26T03:40:02.526Z,14.53
2017-08-26T03:42:30.102Z,16.10
2017-08-26T03:44:57.564Z,16.63
2017-08-26T03:47:25.029Z,19.07
2017-08-26T03:49:53.379Z,15.27
2017-08-26T03:52:20.863Z,16.17
2017-08-26T03:54:48.538Z,14.77
2017-08-26T03:57:16.022Z,16.03
2017-08-26T03:59:43.514Z,16.10
2017-08-26T04:02:10.986Z,17.43
2017-08-26T04:04:39.251Z,16.67
2017-08-26T04:07:06.721Z,19.73
2017-08-26T04:09:34.888Z,17.83
2017-08-26T04:12:02.439Z,18.30
2017-08-26T04:14:29.910Z,17.50
2017-08-26T04:16:57.370Z,18.00
2017-08-26T04:19:24.852Z,17.33
2017-08-26T04:21:53.383Z,16.90
2017-08-26T04:24:20.858Z,18.37
2017-08-26T04:26:48.337Z,18.00
2017-08-26T04:29:15.809Z,18.60
2017-08-26T04:31:43.273Z,18.93
2017-08-26T04:34:10.784Z,18.13
2017-08-26T04:36:38.253Z,18.17
2017-08-26T04:39:05.714Z,16.83
2017-08-26T04:41:34.057Z,19.57
2017-08-26T04:44:01.632Z,20.00
2017-08-26T04:46:29.873Z,19.53
2017-08-26T04:48:57.369Z,18.33
2017-08-26T04:51:25.638Z,17.60
2017-08-26T04:53:53.110Z,21.20
2017-08-26T04:56:20.598Z,19.47
2017-08-26T04:58:48.280Z,20.63
2017-08-26T05:01:15.751Z,19.67
2017-08-26T05:03:43.268Z,20.10
2017-08-26T05:06:10.836Z,19.53
2017-08-26T05:08:38.299Z,19.40
2017-08-26T05:11:05.789Z,17.97
2017-08-26T05:13:34.092Z,19.47
2017-08-26T05:16:01.556Z,19.03
2017-08-26T05:18:29.042Z,19.90
2017-08-26T05:20:57.339Z,18.97
2017-08-26T05:23:24.824Z,19.30
2017-08-26T05:25:52.329Z,16.97
2017-08-26T05:28:19.839Z,18.27
2017-08-26T05:30:47.411Z,16.07
2017-08-26T05:33:14.914Z,19.30
2017-08-26T05:35:42.431Z,17.03
2017-08-26T05:38:09.962Z,15.73
2017-08-26T05:40:37.446Z,19.10
2017-08-26T05:43:04.914Z,16.07
2017-08-26T05:45:32.397Z,18.23
2017-08-26T05:47:59.891Z,18.00
2017-08-26T05:50:27.446Z,17.27
2017-08-26T05:52:54.926Z,14.57
2017-08-26T05:55:22.439Z,16.67
2017-08-26T05:57:49.924Z,17.50
2017-08-26T06:00:17.395Z,18.93
2017-08-26T06:02:44.923Z,20.50
2017-08-26T06:05:12.399Z,20.60
2017-08-26T06:07:39.884Z,17.63
2017-08-26T06:10:07.587Z,20.00
2017-08-26T06:12:35.060Z,17.80
2017-08-26T06:15:02.539Z,16.93
2017-08-26T06:17:30.095Z,19.47
2017-08-26T06:19:57.573Z,17.47
2017-08-26T06:22:25.032Z,19.17
2017-08-26T06:24:52.527Z,19.20
2017-08-26T06:27:20.012Z,19.37
2017-08-26T06:29:47.500Z,18.57
2017-08-26T06:32:15.380Z,19.27
2017-08-26T06:34:42.908Z,18.40
2017-08-26T06:37:10.383Z,18.57
2017-08-26T06:39:37.863Z,18.23
2017-08-26T06:42:05.338Z,16.43
2017-08-26T06:44:32.839Z,14.60
2017-08-26T06:47:01.084Z,13.27
2017-08-26T06:49:28.550Z,13.50
2017-08-26T06:51:56.212Z,12.43
2017-08-26T06:54:23.794Z,13.87
2017-08-26T06:56:52.280Z,11.43
2017-08-26T06:59:19.820Z,11.60
2017-08-26T07:01:47.371Z,11.23
2017-08-26T07:04:14.848Z,10.37
2017-08-26T07:06:42.487Z,10.60
2017-08-26T07:09:10.179Z,10.90
2017-08-26T07:11:37.731Z,9.57
2017-08-26T07:14:05.196Z,11.30
2017-08-26T07:16:32.681Z,9.63
2017-08-26T07:19:00.184Z,9.60
2017-08-26T07:21:27.739Z,10.87
2017-08-26T07:23:55.309Z,11.77
2017-08-26T07:26:22.833Z,12.30
2017-08-26T07:28:50.305Z,10.63
2017-08-26T07:31:17.765Z,11.67
2017-08-26T07:33:45.266Z,11.07
2017-08-26T07:36:12.736Z,12.33
2017-08-26T07:38:40.195Z,13.07
2017-08-26T07:41:07.708Z,13.37
2017-08-26T07:43:36.153Z,13.83
2017-08-26T07:46:03.634Z,13.57
2017-08-26T07:48:31.205Z,11.93
2017-08-26T07:50:59.475Z,11.57
2017-08-26T07:53:27.031Z,13.60
2017-08-26T07:55:54.952Z,12.70
2017-08-26T07:58:22.611Z,13.13
2017-08-26T08:00:50.104Z,13.83
2017-08-26T08:03:17.602Z,11.10
2017-08-26T08:05:45.128Z,12.00
2017-08-26T08:08:12.596Z,12.13
2017-08-26T08:10:40.092Z,12.73
2017-08-26T08:13:07.608Z,11.93
2017-08-26T08:15:35.151Z,11.80
2017-08-26T08:18:02.771Z,10.47
2017-08-26T08:20:30.224Z,10.87
2017-08-26T08:22:57.694Z,11.93
2017-08-26T08:25:25.222Z,10.90
2017-08-26T08:27:52.748Z,9.53
2017-08-26T08:30:20.307Z,9.50
2017-08-26T08:32:48.701Z,8.10
2017-08-26T08:35:16.974Z,7.97
2017-08-26T08:37:44.439Z,9.00
2017-08-26T08:40:12.798Z,8.80
2017-08-26T08:42:40.343Z,7.70
2017-08-26T08:45:07.927Z,7.57
2017-08-26T08:47:36.514Z,8.77
2017-08-26T08:50:04.046Z,7.93
2017-08-26T08:52:31.511Z,8.87
2017-08-26T08:54:58.981Z,8.90
2017-08-26T08:57:26.443Z,9.97
2017-08-26T08:59:53.984Z,8.87
2017-08-26T09:02:21.463Z,10.27
2017-08-26T09:04:49.152Z,9.73
2017-08-26T09:07:16.671Z,9.67
2017-08-26T09:09:44.235Z,8.20
2017-08-26T09:12:11.780Z,8.20
2017-08-26T09:14:39.235Z,8.00
2017-08-26T09:17:07.772Z,9.20
2017-08-26T09:19:35.290Z,8.37
2017-08-26T09:22:02.740Z,7.87
2017-08-26T09:24:31.313Z,8.77
2017-08-26T09:26:59.283Z,9.67
2017-08-26T09:29:26.751Z,8.60
2017-08-26T09:31:54.991Z,7.70
2017-08-26T09:34:22.453Z,7.30
2017-08-26T09:36:50.535Z,8.60
2017-08-26T09:39:18.006Z,8.50
2017-08-26T09:41:45.468Z,7.33
2017-08-26T09:44:12.940Z,7.17
2017-08-26T09:46:40.424Z,7.10
2017-08-26T09:49:07.879Z,6.70
2017-08-26T09:51:35.380Z,7.57
2017-08-26T09:54:03.116Z,6.13
2017-08-26T09:56:30.596Z,6.27
2017-08-26T09:58:58.310Z,8.23
2017-08-26T10:01:25.827Z,8.20
2017-08-26T10:03:53.292Z,8.27
2017-08-26T10:06:20.752Z,10.20
2017-08-26T10:08:48.260Z,9.53
2017-08-26T10:11:15.755Z,9.40
2017-08-26T10:13:43.312Z,8.20
2017-08-26T10:16:10.771Z,8.40
2017-08-26T10:18:38.330Z,9.27
2017-08-26T10:21:05.879Z,8.70
2017-08-26T10:23:33.552Z,9.40
2017-08-26T10:26:01.024Z,9.90
2017-08-26T10:28:29.295Z,10.93
2017-08-26T10:30:56.771Z,9.30
2017-08-26T10:33:24.264Z,9.77
2017-08-26T10:35:51.739Z,11.47
2017-08-26T10:38:19.239Z,8.83
2017-08-26T10:40:46.716Z,10.90
2017-08-26T10:43:14.188Z,10.07
2017-08-26T10:45:41.663Z,9.63
2017-08-26T10:48:09.140Z,10.90
2017-08-26T10:50:36.608Z,13.57
2017-08-26T10:53:04.107Z,14.23
2017-08-26T10:55:31.598Z,15.20
2017-08-26T10:57:59.059Z,12.73
2017-08-26T11:00:26.532Z,13.27
2017-08-26T11:02:54.087Z,11.70
2017-08-26T11:05:22.314Z,11.90
2017-08-26T11:07:49.787Z,14.27
2017-08-26T11:10:17.363Z,12.97
2017-08-26T11:12:44.835Z,13.90
2017-08-26T11:15:12.375Z,15.27
2017-08-26T11:17:39.853Z,13.50
2017-08-26T11:20:07.345Z,13.03
2017-08-26T11:22:34.832Z,14.20
2017-08-26T11:25:02.312Z,14.07
2017-08-26T11:27:29.772Z,14.60
2017-08-26T11:29:57.261Z,15.30
2017-08-26T11:32:24.732Z,12.80
2017-08-26T11:34:52.341Z,11.27
2017-08-26T11:37:19.897Z,11.50
2017-08-26T11:39:47.529Z,14.47
2017-08-26T11:42:14.992Z,12.80
2017-08-26T11:44:42.489Z,14.30
2017-08-26T11:47:09.960Z,14.37
2017-08-26T11:49:37.420Z,13.67
2017-08-26T11:52:05.655Z,16.13
2017-08-26T11:54:33.211Z,14.90
2017-08-26T11:57:00.857Z,15.40
2017-08-26T11:59:28.687Z,14.83
2017-08-26T12:01:56.898Z,16.37
2017-08-26T12:04:24.776Z,14.30
2017-08-26T12:06:52.265Z,12.57
2017-08-26T12:09:20.520Z,15.30
2017-08-26T12:11:47.997Z,13.13
2017-08-26T12:14:16.248Z,13.63
2017-08-26T12:16:43.807Z,11.73
2017-08-26T12:19:11.286Z,12.47
2017-08-26T12:21:39.515Z,13.83
2017-08-26T12:24:07.091Z,11.90
2017-08-26T12:26:35.159Z,15.03
2017-08-26T12:29:02.647Z,15.17
2017-08-26T12:31:30.892Z,12.80
2017-08-26T12:33:58.455Z,12.80
2017-08-26T12:36:25.935Z,15.03
2017-08-26T12:38:54.197Z,14.80
2017-08-26T12:41:21.668Z,14.67
2017-08-26T12:43:49.130Z,14.80
2017-08-26T12:46:16.687Z,14.70
2017-08-26T12:48:44.916Z,13.80
2017-08-26T12:51:12.375Z,14.80
2017-08-26T12:53:39.846Z,15.17
2017-08-26T12:56:07.364Z,14.70
2017-08-26T12:58:35.151Z,15.67
2017-08-26T13:01:02.730Z,15.43
2017-08-26T13:03:30.192Z,14.40
2017-08-26T13:05:57.679Z,16.20
2017-08-26T13:08:25.201Z,17.47
2017-08-26T13:10:52.655Z,17.03
2017-08-26T13:13:20.221Z,16.07
2017-08-26T13:15:47.988Z,16.57
2017-08-26T13:18:15.465Z,18.53
2017-08-26T13:20:42.927Z,18.47
2017-08-26T13:23:10.778Z,17.60
2017-08-26T13:25:39.020Z,19.40
2017-08-26T13:28:06.491Z,20.60
2017-08-26T13:30:34.185Z,18.43
2017-08-26T13:33:01.725Z,19.13
2017-08-26T13:35:29.998Z,20.83
2017-08-26T13:37:58.888Z,20.37
2017-08-26T13:40:27.154Z,20.53
2017-08-26T13:42:54.713Z,20.77
2017-08-26T13:45:22.196Z,23.07
2017-08-26T13:47:49.691Z,20.43
2017-08-26T13:50:17.176Z,20.07
2017-08-26T13:52:44.892Z,21.87
2017-08-26T13:55:12.360Z,20.20
2017-08-26T13:57:39.862Z,20.30
2017-08-26T14:00:08.231Z,18.10
2017-08-26T14:02:35.814Z,22.20
2017-08-26T14:05:03.274Z,19.57
2017-08-26T14:07:31.008Z,21.10
2017-08-26T14:09:58.491Z,19.50
2017-08-26T14:12:25.959Z,20.70
2017-08-26T14:14:53.503Z,18.80
2017-08-26T14:17:20.968Z,19.40
2017-08-26T14:19:48.503Z,15.20
2017-08-26T14:22:16.683Z,13.67
2017-08-26T14:24:44.231Z,12.23
2017-08-26T14:27:11.785Z,9.70
2017-08-26T14:29:39.255Z,7.90
2017-08-26T14:32:06.723Z,6.20
2017-08-26T14:34:34.995Z,4.90
2017-08-26T14:37:03.518Z,4.47
2017-08-26T14:39:30.978Z,11.20
2017-08-26T14:41:58.444Z,13.60
2017-08-26T14:44:26.028Z,12.80
2017-08-26T14:46:53.904Z,13.80
2017-08-26T14:49:21.375Z,18.30
2017-08-26T14:51:48.921Z,18.10
2017-08-26T14:54:17.456Z,20.30
2017-08-26T14:56:44.933Z,20.00
2017-08-26T14:59:13.192Z,19.27
2017-08-26T15:01:40.663Z,18.13
2017-08-26T15:04:08.145Z,19.10
2017-08-26T15:06:35.627Z,19.40
2017-08-26T15:09:03.118Z,20.60
2017-08-26T15:11:30.576Z,19.00
2017-08-26T15:13:58.815Z,18.60
2017-08-26T15:16:26.363Z,17.90
2017-08-26T15:18:53.831Z,18.00
2017-08-26T15:21:21.291Z,20.90
2017-08-26T15:23:49.702Z,22.00
2017-08-26T15:26:17.204Z,23.87
2017-08-26T15:28:44.772Z,30.33
2017-08-26T15:31:13.119Z,22.70
2017-08-26T15:33:40.641Z,22.50
2017-08-26T15:36:08.139Z,21.47
2017-08-26T15:38:35.624Z,24.30
2017-08-26T15:41:03.147Z,24.20
2017-08-26T15:43:30.719Z,30.37
2017-08-26T15:45:58.484Z,40.57
2017-08-26T15:48:26.034Z,26.70
2017-08-26T15:50:53.598Z,25.30
2017-08-26T15:53:21.359Z,28.30
2017-08-26T15:55:48.923Z,26.70
2017-08-26T15:58:16.504Z,26.87
2017-08-26T16:00:44.056Z,26.63
2017-08-26T16:03:11.522Z,36.10
2017-08-26T16:05:39.019Z,36.07
2017-08-26T16:08:06.501Z,31.27
2017-08-26T16:10:33.959Z,34.80
2017-08-26T16:13:01.553Z,35.93
2017-08-26T16:15:29.035Z,35.20
2017-08-26T16:17:56.650Z,37.33
2017-08-26T16:20:24.203Z,40.03
2017-08-26T16:22:51.769Z,44.27
2017-08-26T16:25:19.236Z,41.90
2017-08-26T16:27:48.552Z,44.23
2017-08-26T16:30:16.079Z,40.37
2017-08-26T16:32:43.634Z,40.37
2017-08-26T16:35:11.193Z,46.10
2017-08-26T16:37:39.279Z,48.73
2017-08-26T16:40:06.740Z,43.80
2017-08-26T16:42:34.211Z,44.77
2017-08-26T16:45:01.695Z,46.93
2017-08-26T16:47:29.349Z,45.03
2017-08-26T16:49:56.839Z,45.47
2017-08-26T16:52:25.508Z,43.50
2017-08-26T16:54:52.976Z,45.00
2017-08-26T16:57:20.447Z,49.90
2017-08-26T16:59:48.007Z,92.43
2017-08-26T17:02:16.004Z,40.20
2017-08-26T17:04:43.534Z,39.97
2017-08-26T17:07:11.144Z,42.10
2017-08-26T17:09:38.651Z,36.40
2017-08-26T17:12:06.216Z,39.57
2017-08-26T17:14:33.767Z,38.30
2017-08-26T17:17:01.553Z,36.90
2017-08-26T17:19:29.024Z,34.70
2017-08-26T17:21:58.296Z,38.60
2017-08-26T17:24:25.868Z,37.47
2017-08-26T17:26:53.528Z,38.27
2017-08-26T17:29:21.071Z,37.73
2017-08-26T17:31:48.563Z,35.80
2017-08-26T17:34:16.056Z,33.77
2017-08-26T17:36:43.533Z,31.10
2017-08-26T17:39:11.355Z,37.30
2017-08-26T17:41:39.136Z,36.57
2017-08-26T17:44:06.703Z,35.47
2017-08-26T17:46:34.645Z,37.27
2017-08-26T17:49:05.799Z,34.93
2017-08-26T17:51:33.400Z,34.40
2017-08-26T17:54:01.187Z,32.87
2017-08-26T17:56:29.156Z,32.03
2017-08-26T17:58:57.340Z,33.17
2017-08-26T18:01:25.402Z,30.07
2017-08-26T18:03:53.483Z,32.73
2017-08-26T18:06:21.156Z,34.10
2017-08-26T18:08:48.882Z,33.50
2017-08-26T18:11:17.803Z,31.77
2017-08-26T18:13:45.990Z,32.70
2017-08-26T18:16:13.461Z,29.03
2017-08-26T18:18:40.952Z,31.70
2017-08-26T18:21:08.429Z,29.83
2017-08-26T18:23:38.187Z,30.07
2017-08-26T18:26:05.771Z,28.87
2017-08-26T18:28:33.814Z,31.07
2017-08-26T18:31:01.331Z,30.00
2017-08-26T18:33:28.873Z,34.23
2017-08-26T18:35:56.427Z,29.67
2017-08-26T18:38:23.890Z,30.90
2017-08-26T18:40:51.647Z,32.50
2017-08-26T18:43:19.195Z,29.03
2017-08-26T18:45:46.760Z,31.50
2017-08-26T18:48:14.352Z,28.60
2017-08-26T18:50:41.841Z,29.10
2017-08-26T18:53:09.337Z,31.33
2017-08-26T18:55:36.828Z,29.43
2017-08-26T18:58:04.351Z,28.20
2017-08-26T19:00:31.820Z,28.40
2017-08-26T19:02:59.536Z,28.27
2017-08-26T19:05:27.700Z,30.30
2017-08-26T19:07:55.258Z,26.97
2017-08-26T19:10:22.737Z,29.13
2017-08-26T19:12:50.227Z,27.27
2017-08-26T19:15:17.767Z,26.90
2017-08-26T19:17:45.253Z,28.43
2017-08-26T19:20:12.743Z,27.90
2017-08-26T19:22:40.212Z,26.63
2017-08-26T19:25:07.692Z,26.80
2017-08-26T19:27:35.160Z,26.73
2017-08-26T19:30:02.727Z,29.00
2017-08-26T19:32:30.208Z,29.07
2017-08-26T19:34:57.709Z,28.37
2017-08-26T19:37:25.180Z,30.27
2017-08-26T19:39:52.686Z,31.43
2017-08-26T19:42:20.208Z,29.73
2017-08-26T19:44:47.679Z,30.70
2017-08-26T19:47:15.156Z,29.00
2017-08-26T19:49:42.635Z,30.50
2017-08-26T19:52:10.140Z,27.60
2017-08-26T19:54:37.611Z,31.53
2017-08-26T19:57:05.878Z,28.80
2017-08-26T19:59:33.635Z,32.00
2017-08-26T20:02:01.100Z,28.60
2017-08-26T20:04:28.653Z,28.53
2017-08-26T20:06:56.185Z,27.80
2017-08-26T20:09:23.762Z,29.30
2017-08-26T20:11:51.247Z,30.70
2017-08-26T20:14:18.799Z,28.50
2017-08-26T20:16:46.269Z,29.23
2017-08-26T20:19:13.744Z,30.80
2017-08-26T20:21:41.216Z,23.20
2017-08-26T20:24:08.684Z,27.43
2017-08-26T20:26:36.269Z,28.33
2017-08-26T20:29:03.843Z,27.47
2017-08-26T20:31:31.315Z,27.20
2017-08-26T20:33:58.792Z,27.63
2017-08-26T20:36:26.563Z,30.10
2017-08-26T20:38:54.057Z,30.10
2017-08-26T20:41:21.614Z,26.17
2017-08-26T20:43:49.094Z,27.17
2017-08-26T20:46:16.633Z,26.40
2017-08-26T20:48:44.129Z,27.20
2017-08-26T20:51:11.653Z,26.90
2017-08-26T20:53:39.223Z,26.17
2017-08-26T20:56:06.686Z,25.57
2017-08-26T20:58:34.196Z,23.93
2017-08-26T21:01:01.669Z,23.63
2017-08-26T21:03:29.139Z,26.07
2017-08-26T21:05:56.659Z,26.57
2017-08-26T21:08:24.327Z,26.63
2017-08-26T21:10:51.916Z,28.43
2017-08-26T21:13:19.708Z,27.80
2017-08-26T21:15:47.237Z,26.87
2017-08-26T21:18:14.703Z,25.87
2017-08-26T21:20:42.427Z,25.83
2017-08-26T21:23:09.952Z,26.27
2017-08-26T21:25:37.452Z,21.73
2017-08-26T21:28:04.959Z,27.83
2017-08-26T21:30:33.443Z,27.23
2017-08-26T21:33:00.979Z,26.13
2017-08-26T21:35:28.465Z,26.00
2017-08-26T21:37:57.116Z,28.20
2017-08-26T21:40:24.811Z,27.63
2017-08-26T21:42:52.336Z,30.63
2017-08-26T21:45:19.832Z,30.00
2017-08-26T21:47:47.352Z,25.30
2017-08-26T21:50:15.503Z,31.60
2017-08-26T21:52:42.974Z,30.80
2017-08-26T21:55:10.595Z,31.87
2017-08-26T21:57:38.222Z,30.83
2017-08-26T22:00:05.684Z,28.10
2017-08-26T22:02:33.251Z,30.93
2017-08-26T22:05:00.795Z,32.83
2017-08-26T22:07:28.328Z,30.83
2017-08-26T22:09:55.791Z,29.13
2017-08-26T22:12:23.295Z,28.67
2017-08-26T22:14:50.792Z,28.80
2017-08-26T22:17:18.258Z,27.97
2017-08-26T22:19:45.749Z,31.93
2017-08-26T22:22:13.219Z,31.37
2017-08-26T22:24:40.712Z,31.13
2017-08-26T22:27:08.226Z,30.77
2017-08-26T22:29:35.746Z,33.77
2017-08-26T22:32:03.206Z,33.63
2017-08-26T22:34:36.921Z,35.00
2017-08-26T22:37:04.510Z,34.23
2017-08-26T22:39:32.198Z,33.80
2017-08-26T22:41:59.845Z,35.73
2017-08-26T22:44:27.665Z,34.77
2017-08-26T22:46:55.128Z,32.13
2017-08-26T22:49:23.384Z,30.60
2017-08-26T22:51:50.939Z,32.00
2017-08-26T22:54:18.500Z,33.40
2017-08-26T22:56:45.979Z,25.17
2017-08-26T22:59:14.236Z,29.67
2017-08-26T23:01:41.792Z,25.60
2017-08-26T23:04:09.271Z,28.73
2017-08-26T23:06:36.952Z,30.57
2017-08-26T23:09:04.427Z,25.27
2017-08-26T23:11:31.913Z,29.67
2017-08-26T23:13:59.462Z,27.10
2017-08-26T23:16:26.924Z,27.80
2017-08-26T23:18:54.405Z,29.27
2017-08-26T23:21:21.975Z,27.60
2017-08-26T23:23:50.209Z,26.60
2017-08-26T23:26:17.780Z,25.57
2017-08-26T23:28:45.392Z,25.60
2017-08-26T23:31:12.904Z,28.60
2017-08-26T23:33:40.465Z,27.13
2017-08-26T23:36:08.011Z,29.67
2017-08-26T23:38:36.391Z,27.57
2017-08-26T23:41:03.959Z,27.00
2017-08-26T23:43:31.419Z,25.60
2017-08-26T23:45:58.970Z,26.83
2017-08-26T23:48:26.447Z,24.90
2017-08-26T23:50:53.907Z,27.87
2017-08-26T23:53:22.159Z,29.57
2017-08-26T23:55:49.715Z,23.23
2017-08-26T23:58:17.271Z,26.97
